CDT,Max TemperatureF,Mean TemperatureF,Min TemperatureF,Max Dew PointF,MeanDew PointF,Min DewpointF,Max Humidity, Mean Humidity, Min Humidity, Max Sea Level PressureIn, Mean Sea Level PressureIn, Min Sea Level PressureIn, Max VisibilityMiles, Mean VisibilityMiles, Min VisibilityMiles, Max Wind SpeedMPH, Mean Wind SpeedMPH, Max Gust SpeedMPH,PrecipitationIn, CloudCover, Events, WindDirDegrees
2012-9-1,97,74,50,57,50,44,89,53,17,30.06,29.95,29.86,10,10,8,18,7,23,0.00,0,,135
2012-9-2,95,81,67,59,52,44,68,44,19,29.98,29.88,29.84,10,10,10,17,5,24,0.00,0,,96
2012-9-3,94,76,57,61,54,48,73,49,24,29.96,29.87,29.80,10,10,10,9,3,12,0.00,1,,228
2012-9-4,100,73,46,50,45,36,86,49,11,29.92,29.83,29.73,10,10,10,17,4,22,0.00,0,,277
2012-9-5,84,68,51,48,41,35,72,46,20,30.06,29.95,29.83,10,10,10,20,8,26,0.00,0,,25
2012-9-6,97,73,48,51,40,27,86,47,8,29.98,29.87,29.75,10,10,10,23,10,28,0.00,0,,101
2012-9-7,75,61,46,53,45,38,80,57,33,30.27,30.11,29.94,10,10,10,22,9,29,0.03,3,Rain,5
2012-9-8,85,60,35,44,36,31,92,54,15,30.29,30.20,30.09,10,10,10,20,8,28,0.00,0,,307
2012-9-9,83,61,39,43,38,35,82,51,20,30.28,30.15,30.03,10,10,10,16,5,21,0.00,0,,149
2012-9-10,97,76,55,44,40,33,62,37,11,30.03,29.86,29.72,10,10,10,23,14,31,0.00,0,,177
2012-9-11,94,76,58,54,45,37,62,42,21,29.83,29.74,29.68,10,10,10,40,9,48,0.00,0,,142
2012-9-12,70,58,45,51,42,33,93,60,26,30.35,30.13,29.85,10,10,7,32,14,44,0.07,5,Rain,23
2012-9-13,74,55,35,47,39,31,100,61,22,30.48,30.41,30.35,10,6,0,12,4,18,0.00,1,Fog,274
2012-9-14,83,61,38,49,38,33,85,51,17,30.40,30.32,30.22,10,10,10,16,5,22,0.00,0,,233
2012-9-15,85,66,46,41,37,35,56,37,18,30.26,30.11,29.99,10,10,10,17,8,29,0.00,0,,178
2012-9-16,88,65,41,47,39,33,89,52,15,30.03,29.93,29.77,10,10,10,18,7,25,0.00,0,,170
2012-9-17,70,55,39,42,38,34,80,53,26,30.14,30.07,29.93,10,10,10,23,11,30,0.00,0,,5
2012-9-18,83,59,34,43,37,31,89,55,20,30.15,30.02,29.88,10,10,9,17,3,22,0.00,2,,252
2012-9-19,83,60,37,42,35,28,85,51,17,30.09,29.96,29.89,10,10,10,28,9,35,0.00,0,,336
2012-9-20,84,59,33,42,34,28,82,50,17,30.12,30.02,29.90,10,10,10,18,5,24,0.00,0,,267
2012-9-21,81,60,39,41,37,33,85,53,20,30.06,30.00,29.96,10,10,10,22,8,36,0.00,0,,309
2012-9-22,73,53,33,37,33,29,82,54,25,30.31,30.22,30.09,10,10,10,12,4,15,0.00,0,,99
2012-9-23,74,55,35,34,30,27,76,48,19,30.27,30.19,30.11,10,10,10,22,9,26,0.00,0,,133
2012-9-24,75,58,40,50,41,30,86,62,38,30.10,29.97,29.85,10,10,10,13,5,15,0.00,0,,125
2012-9-25,78,60,42,51,46,40,100,68,35,29.95,29.90,29.86,10,10,7,10,3,14,0.00,1,,196
2012-9-26,79,59,39,46,39,36,92,57,21,30.16,30.06,29.94,10,10,10,14,5,20,0.00,0,,125
2012-9-27,77,57,37,52,41,34,86,57,27,30.23,30.17,30.11,10,10,7,13,3,15,0.00,1,,111
2012-9-28,77,63,48,47,40,30,77,48,18,30.21,30.14,30.07,10,10,10,14,3,22,0.00,3,,112
2012-9-29,77,57,36,49,40,34,86,56,26,30.18,30.10,30.03,10,10,10,14,4,18,0.00,0,,137
2012-9-30,84,65,46,54,47,41,93,60,26,30.05,29.96,29.86,10,10,6,24,5,30,T,1,,93